createdAt,value
2023-01-19T00:01:25.532Z,10.03
2023-01-19T00:03:52.942Z,9.80
2023-01-19T00:06:20.127Z,11.27
2023-01-19T00:08:49.589Z,11.33
2023-01-19T00:11:19.551Z,11.43
2023-01-19T00:13:50.373Z,12.17
2023-01-19T00:16:18.238Z,12.27
2023-01-19T00:18:45.890Z,11.07
2023-01-19T00:21:14.736Z,11.37
2023-01-19T00:23:42.607Z,11.37
2023-01-19T00:26:10.268Z,11.30
2023-01-19T00:28:37.367Z,12.13
2023-01-19T00:31:04.489Z,11.93
2023-01-19T00:33:31.678Z,13.23
2023-01-19T00:35:58.774Z,12.63
2023-01-19T00:38:25.869Z,12.27
2023-01-19T00:40:52.974Z,11.43
2023-01-19T00:43:20.333Z,11.97
2023-01-19T00:45:47.655Z,12.30
2023-01-19T00:48:14.746Z,13.13
2023-01-19T00:50:41.881Z,12.77
2023-01-19T00:53:09.771Z,12.60
2023-01-19T00:55:36.846Z,12.37
2023-01-19T00:58:04.115Z,11.67
2023-01-19T01:00:31.281Z,13.87
2023-01-19T01:02:58.960Z,13.17
2023-01-19T01:05:26.274Z,12.50
2023-01-19T01:07:53.360Z,13.23
2023-01-19T01:10:20.484Z,13.53
2023-01-19T01:12:57.765Z,12.63
2023-01-19T01:15:26.433Z,13.00
2023-01-19T01:17:53.658Z,13.47
2023-01-19T01:20:22.746Z,13.57
2023-01-19T01:22:51.403Z,13.23
2023-01-19T01:25:19.398Z,13.67
2023-01-19T01:27:46.575Z,13.47
2023-01-19T01:30:14.709Z,13.53
2023-01-19T01:32:42.348Z,14.17
2023-01-19T01:35:10.170Z,14.77
2023-01-19T01:37:37.725Z,14.90
2023-01-19T01:40:05.483Z,13.87
2023-01-19T01:42:33.125Z,13.80
2023-01-19T01:45:01.432Z,14.50
2023-01-19T01:47:33.461Z,13.70
2023-01-19T01:50:06.525Z,14.70
2023-01-19T01:52:35.061Z,13.93
2023-01-19T01:55:03.235Z,13.97
2023-01-19T01:57:30.606Z,14.23
2023-01-19T01:59:58.048Z,14.37
2023-01-19T02:02:46.872Z,14.90
2023-01-19T02:05:16.762Z,15.33
2023-01-19T02:08:14.391Z,14.23
2023-01-19T02:11:01.142Z,14.30
2023-01-19T02:13:29.974Z,14.00
2023-01-19T02:15:59.838Z,15.23
2023-01-19T02:18:32.068Z,15.30
2023-01-19T02:21:04.619Z,15.03
2023-01-19T02:23:38.865Z,14.17
2023-01-19T02:26:07.249Z,14.40
2023-01-19T02:28:34.545Z,16.07
2023-01-19T02:31:01.683Z,15.43
2023-01-19T02:33:29.559Z,16.27
2023-01-19T02:35:57.578Z,14.57
2023-01-19T02:38:26.747Z,15.40
2023-01-19T02:40:55.419Z,15.50
2023-01-19T02:43:23.276Z,14.03
2023-01-19T02:45:50.670Z,14.73
2023-01-19T02:48:19.317Z,13.97
2023-01-19T02:50:49.700Z,13.73
2023-01-19T02:53:35.347Z,13.93
2023-01-19T02:56:02.406Z,14.40
2023-01-19T02:58:55.582Z,13.03
2023-01-19T03:01:27.904Z,13.93
2023-01-19T03:03:55.012Z,14.80
2023-01-19T03:06:37.159Z,14.87
2023-01-19T03:09:27.673Z,13.77
2023-01-19T03:12:17.691Z,15.27
2023-01-19T03:14:48.524Z,14.70
2023-01-19T03:17:17.884Z,15.47
2023-01-19T03:19:47.610Z,15.13
2023-01-19T03:22:16.413Z,14.73
2023-01-19T03:24:45.580Z,14.43
2023-01-19T03:27:15.566Z,15.47
2023-01-19T03:29:43.625Z,15.30
2023-01-19T03:32:14.247Z,15.33
2023-01-19T03:34:42.571Z,15.57
2023-01-19T03:37:10.985Z,15.60
2023-01-19T03:39:38.306Z,16.07
2023-01-19T03:42:13.731Z,14.97
2023-01-19T03:44:42.321Z,15.70
2023-01-19T03:47:10.661Z,15.73
2023-01-19T03:49:38.548Z,15.30
2023-01-19T03:52:05.959Z,15.83
2023-01-19T03:54:33.190Z,15.07
2023-01-19T03:57:00.265Z,14.93
2023-01-19T03:59:27.350Z,15.30
2023-01-19T04:01:54.872Z,14.67
2023-01-19T04:04:21.987Z,15.30
2023-01-19T04:06:49.072Z,14.57
2023-01-19T04:09:17.525Z,14.73
2023-01-19T04:11:45.637Z,15.13
2023-01-19T04:14:12.851Z,14.17
2023-01-19T04:16:39.938Z,14.93
2023-01-19T04:19:07.080Z,14.33
2023-01-19T04:21:35.155Z,15.00
2023-01-19T04:24:02.232Z,14.40
2023-01-19T04:26:29.673Z,14.90
2023-01-19T04:28:56.743Z,14.40
2023-01-19T04:31:23.943Z,14.10
2023-01-19T04:33:51.341Z,13.40
2023-01-19T04:36:18.456Z,12.60
2023-01-19T04:38:46.616Z,15.10
2023-01-19T04:41:13.747Z,12.47
2023-01-19T04:43:40.968Z,13.33
2023-01-19T04:46:08.239Z,13.67
2023-01-19T04:48:35.575Z,13.50
2023-01-19T04:51:02.856Z,13.57
2023-01-19T04:53:29.929Z,13.00
2023-01-19T04:55:57.215Z,13.63
2023-01-19T04:58:24.286Z,12.37
2023-01-19T05:00:52.201Z,12.57
2023-01-19T05:03:19.769Z,13.70
2023-01-19T05:05:47.076Z,13.20
2023-01-19T05:08:14.363Z,13.47
2023-01-19T05:10:41.498Z,13.00
2023-01-19T05:13:08.572Z,12.67
2023-01-19T05:15:35.651Z,13.47
2023-01-19T05:18:02.767Z,12.63
2023-01-19T05:20:29.917Z,13.27
2023-01-19T05:22:57.103Z,11.77
2023-01-19T05:25:24.302Z,11.47
2023-01-19T05:27:51.369Z,11.47
2023-01-19T05:30:19.176Z,10.83
2023-01-19T05:32:46.270Z,11.43
2023-01-19T05:35:20.189Z,10.17
2023-01-19T05:37:49.482Z,10.50
2023-01-19T05:40:16.758Z,9.83
2023-01-19T05:42:43.829Z,10.23
2023-01-19T05:45:11.884Z,10.50
2023-01-19T05:47:39.892Z,10.43
2023-01-19T05:50:07.706Z,9.90
2023-01-19T05:52:34.816Z,9.80
2023-01-19T05:55:01.894Z,10.03
2023-01-19T05:57:29.014Z,10.00
2023-01-19T05:59:56.082Z,10.00
2023-01-19T06:02:28.499Z,12.20
2023-01-19T06:04:55.917Z,11.93
2023-01-19T06:07:24.395Z,11.77
2023-01-19T06:09:52.235Z,12.07
2023-01-19T06:12:19.552Z,11.77
2023-01-19T06:14:46.685Z,11.43
2023-01-19T06:17:13.744Z,11.40
2023-01-19T06:19:40.948Z,11.63
2023-01-19T06:22:08.192Z,11.63
2023-01-19T06:24:35.267Z,10.80
2023-01-19T06:27:02.616Z,11.17
2023-01-19T06:29:29.764Z,11.30
2023-01-19T06:31:56.964Z,10.70
2023-01-19T06:34:28.585Z,10.53
2023-01-19T06:36:58.821Z,9.43
2023-01-19T06:39:25.934Z,9.80
2023-01-19T06:41:53.026Z,10.20
2023-01-19T06:44:20.115Z,9.80
2023-01-19T06:46:48.888Z,9.20
2023-01-19T06:49:16.004Z,9.50
2023-01-19T06:51:43.193Z,8.83
2023-01-19T06:54:10.366Z,8.53
2023-01-19T06:56:37.441Z,7.90
2023-01-19T06:59:05.466Z,7.70
2023-01-19T07:01:32.786Z,8.53
2023-01-19T07:03:59.925Z,8.33
2023-01-19T07:06:27.076Z,7.33
2023-01-19T07:08:54.763Z,7.83
2023-01-19T07:11:29.361Z,7.37
2023-01-19T07:13:58.982Z,8.03
2023-01-19T07:16:26.200Z,7.97
2023-01-19T07:18:53.380Z,8.40
2023-01-19T07:21:20.720Z,7.90
2023-01-19T07:23:51.813Z,7.63
2023-01-19T07:26:21.331Z,7.80
2023-01-19T07:28:48.913Z,7.43
2023-01-19T07:31:16.499Z,7.30
2023-01-19T07:33:43.720Z,6.93
2023-01-19T07:36:11.194Z,6.77
2023-01-19T07:38:38.352Z,6.67
2023-01-19T07:41:06.459Z,6.43
2023-01-19T07:43:33.959Z,6.63
2023-01-19T07:46:02.196Z,7.53
2023-01-19T07:48:29.319Z,6.93
2023-01-19T07:51:10.381Z,7.13
2023-01-19T07:53:40.297Z,7.70
2023-01-19T07:56:07.754Z,8.07
2023-01-19T07:58:35.090Z,8.07
2023-01-19T08:01:06.479Z,10.93
2023-01-19T08:03:34.174Z,7.40
2023-01-19T08:06:02.382Z,7.40
2023-01-19T08:08:33.038Z,7.83
2023-01-19T08:11:00.384Z,7.23
2023-01-19T08:13:27.828Z,7.90
2023-01-19T08:15:55.097Z,8.43
2023-01-19T08:18:22.460Z,8.40
2023-01-19T08:20:49.606Z,7.77
2023-01-19T08:23:18.062Z,8.33
2023-01-19T08:25:45.990Z,8.90
2023-01-19T08:28:15.196Z,8.83
2023-01-19T08:30:44.322Z,8.53
2023-01-19T08:33:14.577Z,12.07
2023-01-19T08:35:42.806Z,22.57
2023-01-19T08:38:10.694Z,14.63
2023-01-19T08:40:39.181Z,20.90
2023-01-19T08:43:07.879Z,20.03
2023-01-19T08:45:35.688Z,22.17
2023-01-19T08:48:02.831Z,13.03
2023-01-19T08:50:30.898Z,12.77
2023-01-19T08:52:58.940Z,12.67
2023-01-19T08:55:26.870Z,9.77
2023-01-19T08:57:54.476Z,13.03
2023-01-19T09:00:22.350Z,10.80
2023-01-19T09:02:49.613Z,16.83
2023-01-19T09:05:16.698Z,11.13
2023-01-19T09:07:51.616Z,10.57
2023-01-19T09:10:18.989Z,10.87
2023-01-19T09:12:46.437Z,20.03
2023-01-19T09:15:13.934Z,15.57
2023-01-19T09:17:42.298Z,10.37
2023-01-19T09:20:11.164Z,13.97
2023-01-19T09:22:39.639Z,9.43
2023-01-19T09:25:07.992Z,9.80
2023-01-19T09:27:35.233Z,16.57
2023-01-19T09:30:02.387Z,7.83
2023-01-19T09:32:29.529Z,8.17
2023-01-19T09:34:56.806Z,11.80
2023-01-19T09:37:23.934Z,8.23
2023-01-19T09:39:51.071Z,7.97
2023-01-19T09:42:20.957Z,11.10
2023-01-19T09:44:49.887Z,11.07
2023-01-19T09:47:18.410Z,8.20
2023-01-19T09:49:48.296Z,9.67
2023-01-19T09:52:16.179Z,11.30
2023-01-19T09:54:50.079Z,9.33
2023-01-19T09:57:17.373Z,8.40
2023-01-19T09:59:47.790Z,7.43
2023-01-19T10:02:21.024Z,7.70
2023-01-19T10:04:57.099Z,7.87
2023-01-19T10:07:24.182Z,8.10
2023-01-19T10:10:01.472Z,8.13
2023-01-19T10:12:28.583Z,7.80
2023-01-19T10:15:01.635Z,7.80
2023-01-19T10:17:43.294Z,7.63
2023-01-19T10:20:15.656Z,8.43
2023-01-19T10:22:43.835Z,7.47
2023-01-19T10:25:16.524Z,7.50
2023-01-19T10:27:46.296Z,6.53
2023-01-19T10:30:31.649Z,7.10
2023-01-19T10:32:59.405Z,7.27
2023-01-19T10:35:26.762Z,7.37
2023-01-19T10:37:56.096Z,7.80
2023-01-19T10:40:32.256Z,8.77
2023-01-19T10:42:59.818Z,8.13
2023-01-19T10:45:32.095Z,7.87
2023-01-19T10:48:01.922Z,5.90
2023-01-19T10:50:30.754Z,6.77
2023-01-19T10:52:59.733Z,7.20
2023-01-19T10:55:28.887Z,9.93
2023-01-19T10:57:56.318Z,6.93
2023-01-19T11:00:38.181Z,6.97
2023-01-19T11:03:06.785Z,10.07
2023-01-19T11:05:34.896Z,7.67
2023-01-19T11:08:02.041Z,7.83
2023-01-19T11:10:30.047Z,9.37
2023-01-19T11:12:57.143Z,8.20
2023-01-19T11:15:25.873Z,9.03
2023-01-19T11:17:53.492Z,10.20
2023-01-19T11:20:25.020Z,9.93
2023-01-19T11:23:05.797Z,9.90
2023-01-19T11:25:34.305Z,10.60
2023-01-19T11:28:01.663Z,11.37
2023-01-19T11:30:28.856Z,12.63
2023-01-19T11:32:56.330Z,11.33
2023-01-19T11:35:29.658Z,10.80
2023-01-19T11:38:14.802Z,11.97
2023-01-19T11:40:42.836Z,12.03
2023-01-19T11:43:16.134Z,10.60
2023-01-19T11:45:44.179Z,11.57
2023-01-19T11:48:17.846Z,11.10
2023-01-19T11:50:45.574Z,12.17
2023-01-19T11:53:19.566Z,11.13
2023-01-19T11:56:04.700Z,10.77
2023-01-19T11:58:32.821Z,12.13
2023-01-19T12:01:04.823Z,12.47
2023-01-19T12:03:34.524Z,12.20
2023-01-19T12:06:07.515Z,11.67
2023-01-19T12:08:40.387Z,11.87
2023-01-19T12:11:09.641Z,13.63
2023-01-19T12:13:37.529Z,12.30
2023-01-19T12:16:06.943Z,12.20
2023-01-19T12:18:37.136Z,12.07
2023-01-19T12:21:04.543Z,12.30
2023-01-19T12:23:50.286Z,12.07
2023-01-19T12:26:17.359Z,12.20
2023-01-19T12:28:48.704Z,12.00
2023-01-19T12:31:19.941Z,11.47
2023-01-19T12:33:47.474Z,10.60
2023-01-19T12:36:14.592Z,10.57
2023-01-19T12:38:47.666Z,11.17
2023-01-19T12:41:26.134Z,10.97
2023-01-19T12:44:19.979Z,12.27
2023-01-19T12:46:51.708Z,10.73
2023-01-19T12:49:36.615Z,10.70
2023-01-19T12:52:20.872Z,10.17
2023-01-19T12:54:51.084Z,11.03
2023-01-19T12:57:21.591Z,10.03
2023-01-19T12:59:55.951Z,10.43
2023-01-19T13:02:26.650Z,11.37
2023-01-19T13:05:15.260Z,11.43
2023-01-19T13:08:01.167Z,12.50
2023-01-19T13:10:47.072Z,11.53
2023-01-19T13:13:18.083Z,11.43
2023-01-19T13:15:45.215Z,11.67
2023-01-19T13:18:20.539Z,12.60
2023-01-19T13:20:51.195Z,10.70
2023-01-19T13:23:26.073Z,13.00
2023-01-19T13:26:03.558Z,13.23
2023-01-19T13:28:36.647Z,12.80
2023-01-19T13:31:05.094Z,12.87
2023-01-19T13:33:38.617Z,13.10
2023-01-19T13:36:15.875Z,13.37
2023-01-19T13:38:43.541Z,19.53
2023-01-19T13:41:10.669Z,18.40
2023-01-19T13:43:38.301Z,21.73
2023-01-19T13:46:06.446Z,20.83
2023-01-19T13:48:33.721Z,20.90
2023-01-19T13:51:02.255Z,16.30
2023-01-19T13:53:30.285Z,16.03
2023-01-19T13:56:18.389Z,13.47
2023-01-19T13:58:57.490Z,13.07
2023-01-19T14:01:26.620Z,11.50
2023-01-19T14:03:55.928Z,11.57
2023-01-19T14:06:24.087Z,10.97
2023-01-19T14:09:10.158Z,10.50
2023-01-19T14:11:37.286Z,10.93
2023-01-19T14:14:04.479Z,10.87
2023-01-19T14:16:31.650Z,10.90
2023-01-19T14:19:04.140Z,11.47
2023-01-19T14:21:38.648Z,11.37
2023-01-19T14:24:10.007Z,12.07
2023-01-19T14:26:43.411Z,13.07
2023-01-19T14:29:10.454Z,11.23
2023-01-19T14:31:50.756Z,12.97
2023-01-19T14:34:34.422Z,12.10
2023-01-19T14:37:02.345Z,11.30
2023-01-19T14:39:31.136Z,12.13
2023-01-19T14:41:59.661Z,12.70
2023-01-19T14:44:35.519Z,12.23
2023-01-19T14:47:03.004Z,10.83
2023-01-19T14:49:37.129Z,13.00
2023-01-19T14:52:07.226Z,12.53
2023-01-19T14:54:36.408Z,14.20
2023-01-19T14:57:03.501Z,13.50
2023-01-19T14:59:32.627Z,13.87
2023-01-19T15:02:00.132Z,12.67
2023-01-19T15:04:27.345Z,12.83
2023-01-19T15:06:55.672Z,13.57
2023-01-19T15:09:23.453Z,12.57
2023-01-19T15:11:50.910Z,12.20
2023-01-19T15:14:19.541Z,13.67
2023-01-19T15:16:46.766Z,14.10
2023-01-19T15:19:14.525Z,13.30
2023-01-19T15:21:42.312Z,13.73
2023-01-19T15:24:12.987Z,12.87
2023-01-19T15:26:41.274Z,14.03
2023-01-19T15:29:22.655Z,12.87
2023-01-19T15:31:50.012Z,12.73
2023-01-19T15:34:17.148Z,14.17
2023-01-19T15:36:44.884Z,15.10
2023-01-19T15:39:11.987Z,13.87
2023-01-19T15:41:40.477Z,14.63
2023-01-19T15:44:09.095Z,17.10
2023-01-19T15:46:36.526Z,16.97
2023-01-19T15:49:05.653Z,18.17
2023-01-19T15:51:33.192Z,32.90
2023-01-19T15:54:00.554Z,34.80
2023-01-19T15:56:29.033Z,23.33
2023-01-19T15:58:56.449Z,17.20
2023-01-19T16:01:24.743Z,14.27
2023-01-19T16:03:51.930Z,16.33
2023-01-19T16:06:19.031Z,16.10
2023-01-19T16:08:46.277Z,16.27
2023-01-19T16:11:15.177Z,16.70
2023-01-19T16:13:45.879Z,16.47
2023-01-19T16:16:17.161Z,16.47
2023-01-19T16:18:44.323Z,18.03
2023-01-19T16:21:11.472Z,17.03
2023-01-19T16:23:38.770Z,17.93
2023-01-19T16:26:07.878Z,18.67
2023-01-19T16:28:35.968Z,19.30
2023-01-19T16:31:03.311Z,18.47
2023-01-19T16:33:30.514Z,19.83
2023-01-19T16:35:57.604Z,18.93
2023-01-19T16:38:24.719Z,19.23
2023-01-19T16:40:51.827Z,18.27
2023-01-19T16:43:18.956Z,19.80
2023-01-19T16:45:58.012Z,18.03
2023-01-19T16:48:25.406Z,19.67
2023-01-19T16:51:01.729Z,20.40
2023-01-19T16:53:29.194Z,19.53
2023-01-19T16:55:56.568Z,19.63
2023-01-19T16:58:23.820Z,20.03
2023-01-19T17:00:51.000Z,22.20
2023-01-19T17:03:18.416Z,19.83
2023-01-19T17:05:51.957Z,21.40
2023-01-19T17:08:20.108Z,20.23
2023-01-19T17:10:47.911Z,20.97
2023-01-19T17:13:15.000Z,21.20
2023-01-19T17:15:42.212Z,21.40
2023-01-19T17:18:10.090Z,21.90
2023-01-19T17:20:37.359Z,20.50
2023-01-19T17:23:04.517Z,21.37
2023-01-19T17:25:31.758Z,19.03
2023-01-19T17:28:01.616Z,20.83
2023-01-19T17:30:28.882Z,21.93
2023-01-19T17:32:56.037Z,22.57
2023-01-19T17:35:23.118Z,18.83
2023-01-19T17:37:53.238Z,18.10
2023-01-19T17:40:20.363Z,20.20
2023-01-19T17:42:48.060Z,18.63
2023-01-19T17:45:15.204Z,20.33
2023-01-19T17:47:42.381Z,19.63
2023-01-19T17:50:09.825Z,19.20
2023-01-19T17:52:37.995Z,20.43
2023-01-19T17:55:05.229Z,20.03
2023-01-19T17:57:32.322Z,22.40
2023-01-19T17:59:59.494Z,21.30
2023-01-19T18:02:26.651Z,20.20
2023-01-19T18:04:53.883Z,21.77
2023-01-19T18:07:20.931Z,22.80
2023-01-19T18:09:48.034Z,19.80
2023-01-19T18:12:15.947Z,21.47
2023-01-19T18:14:43.237Z,19.77
2023-01-19T18:17:10.383Z,21.03
2023-01-19T18:19:37.461Z,19.97
2023-01-19T18:22:04.565Z,21.07
2023-01-19T18:24:31.672Z,21.53
2023-01-19T18:26:58.762Z,21.77
2023-01-19T18:29:25.890Z,20.70
2023-01-19T18:31:52.964Z,21.73
2023-01-19T18:34:20.104Z,21.40
2023-01-19T18:36:47.315Z,20.93
2023-01-19T18:39:14.394Z,22.33
2023-01-19T18:41:44.319Z,20.37
2023-01-19T18:44:12.244Z,19.97
2023-01-19T18:46:39.533Z,22.03
2023-01-19T18:49:06.843Z,21.00
2023-01-19T18:51:33.969Z,20.00
2023-01-19T18:54:01.077Z,20.73
2023-01-19T18:56:28.179Z,20.13
2023-01-19T18:58:55.458Z,19.60
2023-01-19T19:01:27.058Z,20.87
2023-01-19T19:03:54.909Z,21.33
2023-01-19T19:06:22.761Z,20.80
2023-01-19T19:08:50.785Z,20.60
2023-01-19T19:11:21.528Z,19.73
2023-01-19T19:13:58.876Z,24.50
2023-01-19T19:16:25.991Z,25.00
2023-01-19T19:18:53.121Z,32.77
2023-01-19T19:21:23.944Z,47.50
2023-01-19T19:23:52.073Z,27.80
2023-01-19T19:26:19.438Z,26.37
2023-01-19T19:28:47.470Z,22.30
2023-01-19T19:31:16.643Z,19.50
2023-01-19T19:33:43.824Z,20.07
2023-01-19T19:36:12.655Z,20.73
2023-01-19T19:38:42.738Z,19.33
2023-01-19T19:41:10.527Z,19.80
2023-01-19T19:43:38.088Z,19.33
2023-01-19T19:46:12.594Z,21.07
2023-01-19T19:48:40.145Z,18.60
2023-01-19T19:51:17.381Z,17.77
2023-01-19T19:53:45.410Z,18.10
2023-01-19T19:56:13.606Z,20.77
2023-01-19T19:58:41.974Z,18.93
2023-01-19T20:01:09.311Z,19.53
2023-01-19T20:03:36.877Z,20.37
2023-01-19T20:06:10.372Z,19.73
2023-01-19T20:08:37.711Z,18.07
2023-01-19T20:11:09.430Z,19.93
2023-01-19T20:13:37.104Z,19.50
2023-01-19T20:16:05.077Z,18.17
2023-01-19T20:18:32.272Z,20.13
2023-01-19T20:20:59.896Z,20.73
2023-01-19T20:23:27.193Z,18.40
2023-01-19T20:25:54.547Z,19.90
2023-01-19T20:28:21.617Z,19.60
2023-01-19T20:30:48.794Z,20.77
2023-01-19T20:33:15.958Z,19.80
2023-01-19T20:35:43.087Z,20.37
2023-01-19T20:38:10.169Z,19.57
2023-01-19T20:40:37.282Z,21.30
2023-01-19T20:43:04.428Z,20.53
2023-01-19T20:45:32.529Z,20.97
2023-01-19T20:47:59.765Z,18.70
2023-01-19T20:50:27.211Z,21.00
2023-01-19T20:52:54.312Z,20.37
2023-01-19T20:55:21.389Z,20.70
2023-01-19T20:57:48.444Z,21.10
2023-01-19T21:00:15.703Z,20.50
2023-01-19T21:02:42.881Z,20.27
2023-01-19T21:05:10.212Z,21.63
2023-01-19T21:07:37.399Z,21.20
2023-01-19T21:10:04.752Z,21.00
2023-01-19T21:12:31.833Z,21.83
2023-01-19T21:14:59.196Z,20.20
2023-01-19T21:17:26.301Z,21.73
2023-01-19T21:19:53.390Z,19.93
2023-01-19T21:22:20.607Z,21.30
2023-01-19T21:24:47.751Z,20.43
2023-01-19T21:27:14.873Z,22.10
2023-01-19T21:29:42.073Z,21.40
2023-01-19T21:32:09.267Z,21.47
2023-01-19T21:34:36.686Z,21.20
2023-01-19T21:37:03.761Z,21.53
2023-01-19T21:39:30.886Z,22.17
2023-01-19T21:41:58.009Z,22.50
2023-01-19T21:44:25.089Z,20.60
2023-01-19T21:46:52.228Z,21.80
2023-01-19T21:49:20.706Z,21.07
2023-01-19T21:51:50.392Z,22.30
2023-01-19T21:54:17.814Z,24.13
2023-01-19T21:57:02.508Z,22.47
2023-01-19T21:59:29.618Z,26.60
2023-01-19T22:01:57.041Z,27.13
2023-01-19T22:04:24.195Z,28.23
2023-01-19T22:06:51.333Z,27.40
2023-01-19T22:09:18.399Z,28.00
2023-01-19T22:11:45.498Z,24.63
2023-01-19T22:14:12.608Z,25.53
2023-01-19T22:16:39.732Z,24.87
2023-01-19T22:19:08.124Z,25.63
2023-01-19T22:21:35.885Z,25.70
2023-01-19T22:24:03.918Z,25.13
2023-01-19T22:26:31.966Z,26.83
2023-01-19T22:29:00.180Z,25.80
2023-01-19T22:31:28.090Z,26.60
2023-01-19T22:33:55.988Z,25.93
2023-01-19T22:36:24.310Z,26.17
2023-01-19T22:38:53.183Z,26.30
2023-01-19T22:41:21.725Z,25.93
2023-01-19T22:43:50.341Z,24.90
2023-01-19T22:46:18.712Z,26.47
2023-01-19T22:48:46.174Z,26.23
2023-01-19T22:51:13.599Z,26.50
2023-01-19T22:53:40.687Z,26.37
2023-01-19T22:56:11.875Z,25.50
2023-01-19T22:58:44.194Z,25.87
2023-01-19T23:01:13.539Z,26.37
2023-01-19T23:03:41.075Z,26.67
2023-01-19T23:06:09.789Z,25.60
2023-01-19T23:08:37.466Z,25.80
2023-01-19T23:11:05.523Z,26.67
2023-01-19T23:13:34.929Z,26.17
2023-01-19T23:16:02.575Z,25.13
2023-01-19T23:18:30.123Z,25.00
2023-01-19T23:21:02.242Z,26.27
2023-01-19T23:23:29.322Z,26.57
2023-01-19T23:25:59.958Z,26.53
2023-01-19T23:28:27.092Z,25.47
2023-01-19T23:30:54.374Z,26.93
2023-01-19T23:33:21.667Z,26.90
2023-01-19T23:35:48.743Z,26.50
2023-01-19T23:38:15.885Z,24.97
2023-01-19T23:40:42.957Z,28.03
2023-01-19T23:43:10.065Z,27.47
2023-01-19T23:45:37.266Z,26.97
2023-01-19T23:48:04.432Z,24.90
2023-01-19T23:50:31.499Z,22.87
2023-01-19T23:52:58.572Z,26.33
2023-01-19T23:55:27.659Z,24.10
2023-01-19T23:57:54.743Z,24.47
